createdAt,value
2023-04-06T00:01:04.320Z,99.90
2023-04-06T00:03:33.552Z,99.90
2023-04-06T00:06:02.618Z,99.90
2023-04-06T00:08:31.620Z,99.90
2023-04-06T00:11:00.526Z,99.90
2023-04-06T00:13:29.472Z,99.90
2023-04-06T00:15:59.775Z,99.90
2023-04-06T00:18:29.032Z,99.90
2023-04-06T00:20:57.885Z,99.90
2023-04-06T00:23:26.867Z,99.90
2023-04-06T00:25:56.723Z,99.90
2023-04-06T00:28:27.336Z,99.90
2023-04-06T00:30:56.682Z,99.90
2023-04-06T00:33:27.137Z,99.90
2023-04-06T00:35:56.189Z,99.90
2023-04-06T00:58:09.957Z,99.90
2023-04-06T01:00:48.077Z,99.90
2023-04-06T01:03:35.468Z,99.90
2023-04-06T01:06:04.855Z,99.90
2023-04-06T01:08:39.275Z,99.90
2023-04-06T01:11:20.561Z,99.90
2023-04-06T01:13:52.862Z,99.90
2023-04-06T01:16:40.097Z,99.90
2023-04-06T01:19:15.457Z,99.90
2023-04-06T01:21:54.436Z,99.90
2023-04-06T01:24:33.793Z,99.90
2023-04-06T01:27:18.648Z,99.90
2023-04-06T01:30:03.011Z,99.90
2023-04-06T01:32:47.008Z,99.90
2023-04-06T01:35:20.877Z,99.90
2023-04-06T01:38:00.916Z,99.90
2023-04-06T01:40:49.844Z,99.90
2023-04-06T01:43:21.647Z,99.90
2023-04-06T01:46:11.026Z,99.90
2023-04-06T01:48:43.529Z,99.90
2023-04-06T01:51:21.555Z,99.90
2023-04-06T01:54:02.659Z,99.90
2023-04-06T01:57:08.371Z,99.90
2023-04-06T01:59:57.496Z,99.90
2023-04-06T02:02:50.220Z,99.90
2023-04-06T02:05:24.501Z,99.90
2023-04-06T02:07:55.513Z,99.90
2023-04-06T02:10:32.955Z,99.90
2023-04-06T02:13:07.867Z,99.90
2023-04-06T02:15:37.226Z,99.90
2023-04-06T02:18:06.365Z,99.90
2023-04-06T02:20:35.333Z,99.90
2023-04-06T02:23:04.299Z,99.90
2023-04-06T02:25:33.586Z,99.90
2023-04-06T02:28:02.562Z,99.90
2023-04-06T02:30:33.897Z,99.90
2023-04-06T02:33:03.342Z,99.90
2023-04-06T02:35:40.731Z,99.90
2023-04-06T02:38:10.085Z,99.90
2023-04-06T02:40:39.191Z,99.90
2023-04-06T02:43:19.371Z,99.90
2023-04-06T02:45:49.864Z,99.90
2023-04-06T02:48:38.411Z,99.90
2023-04-06T02:51:07.847Z,99.90
2023-04-06T02:53:37.919Z,99.90
2023-04-06T02:56:08.711Z,99.90
2023-04-06T02:58:51.424Z,99.90
2023-04-06T03:01:23.202Z,99.90
2023-04-06T03:03:58.589Z,99.90
2023-04-06T03:06:30.037Z,99.90
2023-04-06T03:09:17.490Z,99.90
2023-04-06T03:11:48.031Z,99.90
2023-04-06T03:14:18.979Z,99.90
2023-04-06T03:16:49.457Z,99.90
2023-04-06T03:19:22.535Z,99.90
2023-04-06T03:21:52.115Z,99.90
2023-04-06T03:24:22.849Z,99.90
2023-04-06T03:26:51.779Z,99.90
2023-04-06T03:29:21.039Z,99.90
2023-04-06T03:31:51.570Z,99.90
2023-04-06T03:34:36.883Z,99.90
2023-04-06T03:37:10.305Z,99.90
2023-04-06T03:39:46.495Z,99.90
2023-04-06T03:42:20.546Z,99.90
2023-04-06T03:45:09.024Z,99.90
2023-04-06T03:47:42.135Z,99.90
2023-04-06T03:50:12.287Z,99.90
2023-04-06T03:52:41.662Z,99.90
2023-04-06T03:55:11.379Z,99.90
2023-04-06T03:57:58.637Z,99.90
2023-04-06T04:00:27.755Z,99.90
2023-04-06T04:02:59.277Z,99.90
2023-04-06T04:05:28.445Z,99.90
2023-04-06T04:07:57.595Z,99.90
2023-04-06T04:10:29.284Z,99.90
2023-04-06T04:12:58.276Z,99.90
2023-04-06T04:15:27.544Z,99.90
2023-04-06T04:17:56.613Z,99.90
2023-04-06T04:20:26.996Z,99.90
2023-04-06T04:22:56.095Z,99.90
2023-04-06T04:25:26.078Z,99.90
2023-04-06T04:27:56.094Z,99.90
2023-04-06T04:30:26.028Z,99.90
2023-04-06T04:32:55.167Z,99.90
2023-04-06T04:35:27.206Z,99.90
2023-04-06T04:37:56.461Z,99.90
2023-04-06T04:40:25.599Z,99.90
2023-04-06T04:43:05.791Z,99.90
2023-04-06T04:45:36.869Z,99.90
2023-04-06T04:48:24.503Z,99.90
2023-04-06T04:50:59.858Z,99.90
2023-04-06T04:53:34.881Z,99.90
2023-04-06T04:56:12.135Z,99.90
2023-04-06T04:58:59.455Z,99.90
2023-04-06T05:01:38.032Z,99.90
2023-04-06T05:04:16.683Z,99.90
2023-04-06T05:06:47.114Z,99.90
2023-04-06T05:09:16.825Z,99.90
2023-04-06T05:11:46.122Z,99.90
2023-04-06T05:14:14.994Z,99.90
2023-04-06T05:16:44.087Z,99.90
2023-04-06T05:19:13.436Z,99.90
2023-04-06T05:21:47.807Z,99.90
2023-04-06T05:24:17.806Z,99.90
2023-04-06T05:26:48.870Z,99.90
2023-04-06T05:29:23.889Z,99.90
2023-04-06T05:31:54.304Z,99.90
2023-04-06T05:34:23.642Z,99.90
2023-04-06T05:36:54.954Z,99.90
2023-04-06T05:39:27.458Z,99.90
2023-04-06T05:41:56.992Z,99.90
2023-04-06T05:44:35.295Z,99.90
2023-04-06T05:47:14.683Z,99.90
2023-04-06T05:49:45.017Z,99.90
2023-04-06T05:52:22.485Z,99.90
2023-04-06T05:54:52.215Z,99.90
2023-04-06T05:57:21.315Z,99.90
2023-04-06T05:59:51.653Z,99.90
2023-04-06T06:02:22.272Z,99.90
2023-04-06T06:04:53.924Z,99.90
2023-04-06T06:07:24.449Z,99.90
2023-04-06T06:10:00.356Z,99.90
2023-04-06T06:12:34.228Z,99.90
2023-04-06T06:15:05.270Z,99.90
2023-04-06T06:17:40.127Z,99.90
2023-04-06T06:20:10.828Z,99.90
2023-04-06T06:22:42.099Z,99.90
2023-04-06T06:25:16.776Z,99.90
2023-04-06T06:27:47.884Z,99.90
2023-04-06T06:30:21.534Z,99.90
2023-04-06T06:32:53.081Z,99.90
2023-04-06T06:35:22.302Z,99.90
2023-04-06T06:37:58.254Z,99.90
2023-04-06T06:40:30.029Z,99.90
2023-04-06T06:43:00.875Z,99.90
2023-04-06T06:45:49.824Z,99.90
2023-04-06T06:48:18.793Z,99.90
2023-04-06T06:50:49.544Z,99.90
2023-04-06T06:53:25.993Z,99.90
2023-04-06T06:55:56.172Z,99.90
2023-04-06T06:58:25.942Z,99.90
2023-04-06T07:00:59.368Z,99.90
2023-04-06T07:03:32.097Z,99.90
2023-04-06T07:06:02.325Z,99.90
2023-04-06T07:08:39.745Z,99.90
2023-04-06T07:11:08.685Z,99.90
2023-04-06T07:13:37.587Z,99.90
2023-04-06T07:16:11.235Z,99.90
2023-04-06T07:18:40.609Z,99.90
2023-04-06T07:21:09.673Z,99.90
2023-04-06T07:23:40.378Z,99.90
2023-04-06T07:26:09.688Z,99.60
2023-04-06T07:28:39.827Z,96.60
2023-04-06T07:31:08.995Z,94.50
2023-04-06T07:33:39.053Z,94.10
2023-04-06T07:36:13.297Z,93.40
2023-04-06T07:38:49.417Z,91.90
2023-04-06T07:41:19.772Z,91.60
2023-04-06T07:43:48.883Z,92.50
2023-04-06T07:46:17.872Z,92.90
2023-04-06T07:48:47.124Z,92.40
2023-04-06T07:51:17.616Z,91.40
2023-04-06T07:53:48.738Z,90.50
2023-04-06T07:56:17.866Z,91.70
2023-04-06T07:58:46.804Z,91.30
2023-04-06T08:01:16.235Z,91.20
2023-04-06T08:03:46.395Z,90.10
2023-04-06T08:06:21.744Z,88.90
2023-04-06T08:08:54.378Z,87.20
2023-04-06T08:11:23.332Z,84.80
2023-04-06T08:13:52.236Z,83.90
2023-04-06T08:16:21.693Z,81.00
2023-04-06T08:18:50.783Z,81.50
2023-04-06T08:21:19.897Z,79.60
2023-04-06T08:23:55.358Z,79.50
2023-04-06T08:26:34.704Z,76.30
2023-04-06T08:29:14.530Z,71.00
2023-04-06T08:31:46.062Z,69.80
2023-04-06T08:34:15.369Z,68.20
2023-04-06T08:36:44.513Z,68.20
2023-04-06T08:39:13.348Z,67.70
2023-04-06T08:41:46.192Z,66.30
2023-04-06T08:44:15.582Z,65.10
2023-04-06T08:46:44.514Z,65.10
2023-04-06T08:49:14.892Z,64.70
2023-04-06T08:51:45.103Z,65.30
2023-04-06T08:54:14.144Z,64.00
2023-04-06T08:56:46.756Z,63.40
2023-04-06T08:59:16.637Z,63.90
2023-04-06T09:01:47.552Z,64.10
2023-04-06T09:04:17.295Z,65.50
2023-04-06T09:06:47.136Z,65.90
2023-04-06T09:09:28.582Z,64.60
2023-04-06T09:12:09.005Z,62.80
2023-04-06T09:14:46.567Z,61.40
2023-04-06T09:17:23.734Z,61.00
2023-04-06T09:19:57.004Z,60.70
2023-04-06T09:22:28.460Z,61.30
2023-04-06T09:24:57.700Z,62.80
2023-04-06T09:27:38.290Z,62.50
2023-04-06T09:30:26.143Z,62.10
2023-04-06T09:32:57.194Z,61.60
2023-04-06T09:35:27.705Z,62.00
2023-04-06T09:37:57.691Z,62.20
2023-04-06T09:40:26.722Z,60.70
2023-04-06T09:42:58.800Z,60.80
2023-04-06T09:45:29.486Z,60.20
2023-04-06T09:47:59.669Z,61.30
2023-04-06T09:50:30.183Z,61.20
2023-04-06T09:53:02.658Z,60.80
2023-04-06T09:55:37.381Z,61.00
2023-04-06T09:58:12.021Z,62.80
2023-04-06T10:00:50.216Z,62.80
2023-04-06T10:03:34.034Z,62.10
2023-04-06T10:06:07.824Z,61.70
2023-04-06T10:08:41.648Z,61.50
2023-04-06T10:11:11.754Z,61.10
2023-04-06T10:13:43.318Z,60.80
2023-04-06T10:16:12.905Z,60.80
2023-04-06T10:18:44.184Z,60.80
2023-04-06T10:21:16.865Z,60.10
2023-04-06T10:23:50.842Z,60.00
2023-04-06T10:26:22.601Z,60.60
2023-04-06T10:28:53.374Z,61.50
2023-04-06T10:31:28.636Z,61.90
2023-04-06T10:33:58.740Z,62.80
2023-04-06T10:36:28.969Z,63.40
2023-04-06T10:39:00.138Z,64.50
2023-04-06T10:41:35.996Z,66.80
2023-04-06T10:44:06.869Z,68.40
2023-04-06T10:46:36.733Z,69.80
2023-04-06T10:49:15.385Z,70.10
2023-04-06T10:51:44.522Z,69.80
2023-04-06T10:54:14.971Z,69.00
2023-04-06T10:56:43.917Z,68.50
2023-04-06T10:59:14.443Z,67.60
2023-04-06T11:01:47.939Z,67.20
2023-04-06T11:04:19.603Z,67.00
2023-04-06T11:06:51.221Z,66.30
2023-04-06T11:09:28.310Z,65.30
2023-04-06T11:11:58.157Z,65.20
2023-04-06T11:14:28.820Z,65.70
2023-04-06T11:16:58.046Z,65.80
2023-04-06T11:19:27.581Z,66.20
2023-04-06T11:21:57.529Z,66.30
2023-04-06T11:24:28.447Z,65.40
2023-04-06T11:26:59.601Z,65.60
2023-04-06T11:29:32.947Z,65.30
2023-04-06T11:32:03.326Z,66.60
2023-04-06T11:34:36.766Z,67.40
2023-04-06T11:37:09.415Z,68.70
2023-04-06T11:39:41.878Z,68.70
2023-04-06T11:42:11.183Z,67.40
2023-04-06T11:44:43.934Z,67.80
2023-04-06T11:47:13.767Z,67.60
2023-04-06T11:49:45.909Z,67.40
2023-04-06T11:52:18.723Z,67.20
2023-04-06T11:54:48.695Z,68.10
2023-04-06T11:57:18.921Z,68.40
2023-04-06T11:59:49.891Z,68.70
2023-04-06T12:02:19.050Z,69.20
2023-04-06T12:04:48.442Z,70.00
2023-04-06T12:07:17.607Z,70.00
2023-04-06T12:09:46.606Z,70.20
2023-04-06T12:12:15.623Z,71.00
2023-04-06T12:14:44.530Z,71.00
2023-04-06T12:17:14.973Z,71.30
2023-04-06T12:19:44.089Z,71.40
2023-04-06T12:22:13.094Z,72.60
2023-04-06T12:24:42.089Z,71.80
2023-04-06T12:27:12.696Z,72.00
2023-04-06T12:29:41.908Z,72.50
2023-04-06T12:32:10.989Z,73.40
2023-04-06T12:34:41.498Z,73.40
2023-04-06T12:37:10.598Z,74.00
2023-04-06T12:39:39.531Z,73.70
2023-04-06T12:42:08.643Z,73.30
2023-04-06T12:44:37.630Z,73.70
2023-04-06T12:47:08.689Z,73.80
2023-04-06T12:49:37.701Z,72.80
2023-04-06T12:52:08.276Z,72.60
2023-04-06T12:54:37.487Z,73.00
2023-04-06T12:57:06.438Z,73.60
2023-04-06T12:59:36.683Z,75.10
2023-04-06T13:02:06.752Z,76.00
2023-04-06T13:04:36.108Z,76.80
2023-04-06T13:07:05.439Z,77.40
2023-04-06T13:09:35.927Z,78.30
2023-04-06T13:12:06.869Z,79.10
2023-04-06T13:14:38.216Z,79.90
2023-04-06T13:17:07.653Z,80.50
2023-04-06T13:19:36.593Z,81.00
2023-04-06T13:22:05.544Z,81.10
2023-04-06T13:24:35.993Z,81.10
2023-04-06T13:27:05.035Z,80.90
2023-04-06T13:29:35.410Z,80.90
2023-04-06T13:32:04.962Z,81.20
2023-04-06T13:34:34.046Z,81.10
2023-04-06T13:37:02.976Z,80.80
2023-04-06T13:39:32.061Z,80.70
2023-04-06T13:42:03.946Z,80.80
2023-04-06T13:44:33.477Z,81.00
2023-04-06T13:47:02.510Z,81.50
2023-04-06T13:49:31.465Z,81.90
2023-04-06T13:52:00.732Z,82.50
2023-04-06T13:54:30.691Z,82.70
2023-04-06T13:56:59.794Z,83.00
2023-04-06T13:59:35.034Z,83.30
2023-04-06T14:02:04.441Z,83.50
2023-04-06T14:04:34.106Z,83.70
2023-04-06T14:07:03.871Z,83.90
2023-04-06T14:09:33.297Z,84.00
2023-04-06T14:12:02.273Z,84.20
2023-04-06T14:14:32.630Z,84.00
2023-04-06T14:17:01.738Z,84.10
2023-04-06T14:19:31.205Z,84.00
2023-04-06T14:22:01.292Z,84.00
2023-04-06T14:24:30.821Z,83.90
2023-04-06T14:26:59.939Z,84.20
2023-04-06T14:29:28.911Z,85.00
2023-04-06T14:32:01.192Z,84.30
2023-04-06T14:34:30.332Z,84.70
2023-04-06T14:37:00.188Z,85.00
2023-04-06T14:39:29.087Z,85.10
2023-04-06T14:41:58.325Z,85.20
2023-04-06T14:44:27.811Z,85.50
2023-04-06T14:46:56.882Z,85.60
2023-04-06T14:49:27.400Z,85.60
2023-04-06T14:51:56.468Z,85.80
2023-04-06T14:54:25.994Z,86.20
2023-04-06T14:56:54.980Z,86.30
2023-04-06T14:59:23.960Z,86.30
2023-04-06T15:01:53.220Z,86.80
2023-04-06T15:04:22.596Z,87.90
2023-04-06T15:06:53.073Z,87.30
2023-04-06T15:09:22.085Z,87.30
2023-04-06T15:11:51.072Z,87.10
2023-04-06T15:14:19.970Z,86.80
2023-04-06T15:16:49.014Z,87.20
2023-04-06T15:19:17.953Z,87.80
2023-04-06T15:21:47.016Z,88.80
2023-04-06T15:24:17.782Z,88.30
2023-04-06T15:26:47.297Z,89.00
2023-04-06T15:29:16.551Z,88.80
2023-04-06T15:31:45.622Z,88.80
2023-04-06T15:34:14.960Z,89.00
2023-04-06T15:36:44.795Z,89.00
2023-04-06T15:39:14.999Z,89.30
2023-04-06T15:41:45.658Z,89.30
2023-04-06T15:44:15.500Z,89.40
2023-04-06T15:46:44.430Z,89.60
2023-04-06T15:49:13.351Z,89.70
2023-04-06T15:51:43.392Z,89.90
2023-04-06T15:54:12.387Z,90.00
2023-04-06T15:56:41.284Z,90.10
2023-04-06T15:59:11.833Z,90.10
2023-04-06T16:01:42.627Z,90.20
2023-04-06T16:04:12.648Z,90.10
2023-04-06T16:06:41.797Z,90.10
2023-04-06T16:09:10.752Z,90.10
2023-04-06T16:11:39.659Z,90.10
2023-04-06T16:14:09.427Z,90.10
2023-04-06T16:16:40.174Z,90.20
2023-04-06T16:19:09.159Z,90.30
2023-04-06T16:21:38.223Z,90.30
2023-04-06T16:24:08.882Z,90.40
2023-04-06T16:26:37.844Z,90.60
2023-04-06T16:29:06.779Z,90.60
2023-04-06T16:31:35.782Z,90.70
2023-04-06T16:34:06.359Z,90.90
2023-04-06T16:36:36.024Z,91.10
2023-04-06T16:39:05.209Z,91.30
2023-04-06T16:41:34.238Z,91.40
2023-04-06T16:44:03.449Z,91.60
2023-04-06T16:46:32.914Z,91.80
2023-04-06T16:49:02.565Z,92.00
2023-04-06T16:51:33.529Z,92.10
2023-04-06T16:54:03.204Z,92.30
2023-04-06T16:56:33.597Z,92.50
2023-04-06T16:59:02.527Z,92.80
2023-04-06T17:01:31.701Z,93.10
2023-04-06T17:04:00.917Z,93.30
2023-04-06T17:06:31.825Z,93.60
2023-04-06T17:09:01.130Z,93.80
2023-04-06T17:11:39.854Z,94.00
2023-04-06T17:14:15.601Z,94.30
2023-04-06T17:16:45.065Z,94.40
2023-04-06T17:19:14.271Z,94.50
2023-04-06T17:21:44.834Z,94.60
2023-04-06T17:24:13.823Z,94.70
2023-04-06T17:26:42.690Z,94.80
2023-04-06T17:29:11.735Z,94.90
2023-04-06T17:31:40.738Z,95.10
2023-04-06T17:34:10.742Z,95.20
2023-04-06T17:36:39.710Z,95.30
2023-04-06T17:39:11.681Z,95.50
2023-04-06T17:41:41.136Z,95.70
2023-04-06T17:44:09.957Z,95.70
2023-04-06T17:46:38.933Z,95.80
2023-04-06T17:49:10.224Z,95.90
2023-04-06T17:51:39.140Z,96.00
2023-04-06T17:54:09.951Z,96.10
2023-04-06T17:56:39.180Z,96.20
2023-04-06T17:59:10.704Z,96.40
2023-04-06T18:01:41.456Z,96.50
2023-04-06T18:04:10.759Z,96.70
2023-04-06T18:06:39.752Z,96.90
2023-04-06T18:09:10.583Z,97.10
2023-04-06T18:11:40.427Z,97.20
2023-04-06T18:14:11.348Z,97.30
2023-04-06T18:16:41.226Z,97.30
2023-04-06T18:19:11.349Z,97.40
2023-04-06T18:21:40.488Z,97.60
2023-04-06T18:24:18.807Z,97.80
2023-04-06T18:26:52.477Z,97.90
2023-04-06T18:29:22.293Z,98.00
2023-04-06T18:31:55.089Z,98.10
2023-04-06T18:34:24.702Z,98.20
2023-04-06T18:36:53.747Z,98.30
2023-04-06T18:39:25.400Z,98.40
2023-04-06T18:41:59.193Z,98.50
2023-04-06T18:44:28.375Z,98.60
2023-04-06T18:46:57.504Z,98.70
2023-04-06T18:49:26.621Z,98.80
2023-04-06T18:51:57.928Z,98.90
2023-04-06T18:54:53.799Z,99.00
2023-04-06T18:57:23.788Z,98.90
2023-04-06T18:59:52.718Z,99.00
2023-04-06T19:02:21.897Z,99.00
2023-04-06T19:04:51.001Z,99.00
2023-04-06T19:07:20.056Z,99.00
2023-04-06T19:09:50.748Z,99.10
2023-04-06T19:12:19.818Z,99.20
2023-04-06T19:14:51.849Z,99.20
2023-04-06T19:17:21.358Z,99.20
2023-04-06T19:19:50.329Z,99.20
2023-04-06T19:22:19.408Z,99.30
2023-04-06T19:24:52.020Z,99.30
2023-04-06T19:27:21.033Z,99.40
2023-04-06T19:29:49.913Z,99.40
2023-04-06T19:32:19.372Z,99.50
2023-04-06T19:34:48.433Z,99.60
2023-04-06T19:37:26.641Z,99.70
2023-04-06T19:39:57.659Z,99.70
2023-04-06T19:42:32.682Z,99.80
2023-04-06T19:45:02.182Z,99.90
2023-04-06T19:47:31.248Z,99.80
2023-04-06T19:50:00.233Z,99.90
2023-04-06T19:52:30.236Z,99.90
2023-04-06T19:55:02.482Z,99.90
2023-04-06T19:57:34.831Z,99.90
2023-04-06T20:00:05.172Z,99.90
2023-04-06T20:02:38.860Z,99.90
2023-04-06T20:05:26.350Z,99.90
2023-04-06T20:07:55.659Z,99.90
2023-04-06T20:10:26.239Z,99.90
2023-04-06T20:12:55.570Z,99.90
2023-04-06T20:15:24.594Z,99.90
2023-04-06T20:17:53.538Z,99.90
2023-04-06T20:20:22.848Z,99.90
2023-04-06T20:22:51.780Z,99.90
2023-04-06T20:25:22.173Z,99.90
2023-04-06T20:27:54.665Z,99.90
2023-04-06T20:30:23.821Z,99.90
2023-04-06T20:32:52.715Z,99.90
2023-04-06T20:35:21.795Z,99.90
2023-04-06T20:37:51.297Z,99.90
2023-04-06T20:40:21.311Z,99.90
2023-04-06T20:42:52.420Z,99.90
2023-04-06T20:45:21.668Z,99.90
2023-04-06T20:47:58.071Z,99.90
2023-04-06T20:50:27.235Z,99.90
2023-04-06T20:52:56.184Z,99.90
2023-04-06T20:55:25.654Z,99.90
2023-04-06T20:57:56.913Z,99.90
2023-04-06T21:00:26.179Z,99.90
2023-04-06T21:02:55.331Z,99.90
2023-04-06T21:05:24.768Z,99.90
2023-04-06T21:07:53.702Z,99.90
2023-04-06T21:10:29.554Z,99.90
2023-04-06T21:13:00.144Z,99.90
2023-04-06T21:15:29.181Z,99.90
2023-04-06T21:17:58.309Z,99.90
2023-04-06T21:20:27.246Z,99.90
2023-04-06T21:22:56.311Z,99.90
2023-04-06T21:25:25.410Z,99.90
2023-04-06T21:27:54.724Z,99.90
2023-04-06T21:30:25.180Z,99.90
2023-04-06T21:32:54.773Z,99.90
2023-04-06T21:35:24.362Z,99.90
2023-04-06T21:37:53.629Z,99.90
2023-04-06T21:40:22.795Z,99.90
2023-04-06T21:42:51.830Z,99.90
2023-04-06T21:45:22.786Z,99.90
2023-04-06T21:47:53.472Z,99.90
2023-04-06T21:50:27.296Z,99.90
2023-04-06T21:52:56.776Z,99.90
2023-04-06T21:55:25.775Z,99.90
2023-04-06T21:57:54.916Z,99.90
2023-04-06T22:00:23.928Z,99.90
2023-04-06T22:02:54.798Z,99.90
2023-04-06T22:05:23.974Z,99.90
2023-04-06T22:07:53.717Z,99.90
2023-04-06T22:10:22.846Z,99.90
2023-04-06T22:12:52.050Z,99.90
2023-04-06T22:15:21.049Z,99.90
2023-04-06T22:17:50.263Z,99.90
2023-04-06T22:20:20.914Z,99.90
2023-04-06T22:22:49.980Z,99.90
2023-04-06T22:25:19.070Z,99.90
2023-04-06T22:27:48.080Z,99.90
2023-04-06T22:30:17.468Z,99.90
2023-04-06T22:32:46.682Z,99.90
2023-04-06T22:35:15.758Z,99.90
2023-04-06T22:37:46.312Z,99.90
2023-04-06T22:40:15.760Z,99.90
2023-04-06T22:42:44.743Z,99.90
2023-04-06T22:45:13.931Z,99.90
2023-04-06T22:47:43.872Z,99.90
2023-04-06T22:50:13.513Z,99.90
2023-04-06T22:52:42.536Z,99.90
2023-04-06T22:55:13.025Z,99.90
2023-04-06T22:57:42.108Z,99.90
2023-04-06T23:00:12.202Z,99.90
2023-04-06T23:02:41.238Z,99.90
2023-04-06T23:05:11.386Z,99.90
2023-04-06T23:07:40.424Z,99.90
2023-04-06T23:10:10.081Z,99.90
2023-04-06T23:12:59.165Z,99.90
2023-04-06T23:15:28.073Z,99.90
2023-04-06T23:17:57.201Z,99.90
2023-04-06T23:20:26.241Z,99.90
2023-04-06T23:22:55.315Z,99.90
2023-04-06T23:25:43.280Z,99.90
2023-04-06T23:28:13.677Z,99.90
2023-04-06T23:30:42.812Z,99.90
2023-04-06T23:33:11.796Z,99.90
2023-04-06T23:35:40.964Z,99.90
2023-04-06T23:38:28.282Z,99.90
2023-04-06T23:40:57.306Z,99.90
2023-04-06T23:43:27.752Z,99.90
2023-04-06T23:45:56.986Z,99.90
2023-04-06T23:48:25.935Z,99.90
2023-04-06T23:50:54.822Z,99.90
2023-04-06T23:53:23.794Z,99.90
2023-04-06T23:55:52.851Z,99.90
2023-04-06T23:58:21.782Z,99.90
